Time;durP1;ratioP1;P1;durP2;ratioP2;P2;SDS_P1;SDS_P2;PMS_P1;PMS_P2;Temp;Humidity;BMP_temperature;BMP_pressure;BME280_temperature;BME280_humidity;BME280_pressure;Samples;Min_cycle;Max_cycle;Signal;HPM_P1;HPM_P2
2021/08/05 00:01:04;;;;;;;10.48;4.20;;;;;;;15.31;87.20;101222.94;10189403;28;20089;-71
2021/08/05 00:06:01;;;;;;;9.48;4.30;;;;;;;15.27;87.11;101227.53;10194210;28;20046;-69
2021/08/05 00:10:57;;;;;;;7.03;4.35;;;;;;;15.26;86.96;101216.84;10187617;28;20108;-70
2021/08/05 00:15:54;;;;;;;6.45;3.80;;;;;;;15.27;86.96;101216.50;10187989;28;20141;-70
2021/08/05 00:20:51;;;;;;;12.00;4.40;;;;;;;15.26;86.80;101223.16;10188033;28;20080;-70
2021/08/05 00:25:48;;;;;;;6.30;3.70;;;;;;;15.26;87.23;101220.41;10186294;28;20046;-71
2021/08/05 00:30:44;;;;;;;7.57;4.18;;;;;;;15.27;87.46;101210.16;10193933;28;20049;-70
2021/08/05 00:35:41;;;;;;;7.45;4.32;;;;;;;15.25;87.38;101206.97;10186594;28;20089;-72
2021/08/05 00:40:37;;;;;;;10.20;3.58;;;;;;;15.25;87.41;101202.25;10188549;28;20066;-70
2021/08/05 00:45:34;;;;;;;9.15;3.85;;;;;;;15.25;87.57;101213.28;10189571;28;20092;-70
2021/08/05 00:50:31;;;;;;;6.85;4.15;;;;;;;15.24;87.69;101200.63;10192519;28;20042;-71
2021/08/05 00:55:28;;;;;;;5.55;4.03;;;;;;;15.23;87.72;101198.25;10185968;28;20129;-71
2021/08/05 01:00:25;;;;;;;8.93;4.53;;;;;;;15.22;87.69;101197.41;10186147;28;20129;-70
2021/08/05 01:05:24;;;;;;;6.55;3.38;;;;;;;15.22;87.54;101200.16;10188774;28;20128;-70
2021/08/05 01:10:36;;;;;;;12.35;3.92;;;;;;;15.20;87.83;101188.72;10195005;28;20103;-71
2021/08/05 01:15:32;;;;;;;7.38;3.40;;;;;;;15.17;87.49;101183.84;10181701;28;20096;-71
2021/08/05 01:20:31;;;;;;;12.40;3.08;;;;;;;15.18;88.28;101179.16;10185136;28;20038;-69
2021/08/05 01:25:33;;;;;;;12.27;3.80;;;;;;;15.17;87.80;101189.38;10186512;28;20069;-71
2021/08/05 01:30:31;;;;;;;8.20;3.53;;;;;;;15.15;87.80;101180.63;10190978;28;20053;-70
2021/08/05 01:35:29;;;;;;;6.82;3.20;;;;;;;15.14;87.64;101179.03;10187506;28;20069;-71
2021/08/05 01:40:26;;;;;;;6.78;3.38;;;;;;;15.12;87.86;101175.81;10197813;28;20070;-71
2021/08/05 01:45:22;;;;;;;11.38;3.80;;;;;;;15.10;87.90;101178.09;10194887;28;20104;-72
2021/08/05 01:50:20;;;;;;;4.90;2.63;;;;;;;15.10;87.73;101180.84;10193919;28;20455;-71
2021/08/05 01:55:16;;;;;;;4.40;2.90;;;;;;;15.07;87.78;101184.28;10197760;28;20087;-70
2021/08/05 02:00:13;;;;;;;9.15;4.13;;;;;;;15.06;87.76;101177.16;10188193;28;20156;-69
2021/08/05 02:05:26;;;;;;;10.65;3.03;;;;;;;15.03;87.49;101172.31;10204615;28;20119;-70
2021/08/05 02:10:34;;;;;;;6.43;3.08;;;;;;;15.01;87.49;101180.09;10193861;28;20074;-69
2021/08/05 02:15:35;;;;;;;5.93;3.17;;;;;;;14.94;87.47;101167.72;10194425;28;20089;-69
2021/08/05 02:20:32;;;;;;;4.47;2.78;;;;;;;14.91;87.75;101171.09;10192986;28;20045;-69
2021/08/05 02:25:30;;;;;;;5.22;2.83;;;;;;;14.90;87.65;101163.22;10191944;28;20498;-69
2021/08/05 02:30:27;;;;;;;10.65;2.63;;;;;;;14.89;87.29;101169.84;10196524;28;20045;-69
2021/08/05 02:35:25;;;;;;;6.60;2.60;;;;;;;14.89;87.43;101161.56;10194846;28;20050;-69
2021/08/05 02:40:22;;;;;;;9.27;3.20;;;;;;;14.85;87.63;101164.22;10197399;28;20080;-70
2021/08/05 02:45:18;;;;;;;5.07;3.03;;;;;;;14.86;87.69;101157.56;10193427;28;20084;-70
2021/08/05 02:50:15;;;;;;;10.13;2.88;;;;;;;14.82;87.20;101164.88;10194303;28;20141;-71
2021/08/05 02:55:11;;;;;;;5.07;2.97;;;;;;;14.81;87.47;101149.50;10195130;28;20050;-70
2021/08/05 03:00:09;;;;;;;9.40;2.75;;;;;;;14.79;87.29;101146.28;10197964;28;20097;-71
2021/08/05 03:05:08;;;;;;;6.13;2.75;;;;;;;14.77;87.10;101137.53;10192000;28;20050;-71
2021/08/05 03:10:07;;;;;;;7.50;2.63;;;;;;;14.75;86.74;101134.31;10202911;28;20050;-70
2021/08/05 03:15:05;;;;;;;5.65;2.70;;;;;;;14.71;87.21;101133.38;10186027;28;20061;-69
2021/08/05 03:20:02;;;;;;;7.18;2.92;;;;;;;14.69;87.14;101132.91;10190558;28;20049;-70
2021/08/05 03:24:59;;;;;;;7.13;2.63;;;;;;;14.67;86.87;101126.94;10189469;28;20171;-71
2021/08/05 03:29:55;;;;;;;4.70;2.40;;;;;;;14.68;86.69;101120.28;10189610;28;20058;-70
2021/08/05 03:34:52;;;;;;;6.90;2.72;;;;;;;14.69;86.66;101124.66;10191549;28;20577;-69
2021/08/05 03:39:48;;;;;;;6.45;2.58;;;;;;;14.66;86.85;101115.13;10190753;28;20045;-69
2021/08/05 03:44:45;;;;;;;4.35;2.60;;;;;;;14.61;86.65;101111.78;10169248;28;20396;-69
2021/08/05 03:49:41;;;;;;;5.47;2.97;;;;;;;14.64;86.62;101116.59;10190124;28;21007;-68
2021/08/05 03:54:38;;;;;;;6.47;2.75;;;;;;;14.61;86.88;101117.28;10188241;28;20136;-68
2021/08/05 03:59:34;;;;;;;4.85;2.60;;;;;;;14.62;86.62;101113.38;10181913;28;20045;-68
2021/08/05 04:04:31;;;;;;;5.93;2.75;;;;;;;14.62;86.46;101113.38;10187336;28;20084;-69
2021/08/05 04:09:27;;;;;;;4.70;2.40;;;;;;;14.64;86.53;101111.09;10186343;28;20474;-68
2021/08/05 04:14:24;;;;;;;6.20;3.00;;;;;;;14.62;86.85;101118.88;10188199;28;20619;-69
2021/08/05 04:19:21;;;;;;;3.78;2.53;;;;;;;14.62;86.81;101113.38;10186207;28;20049;-69
2021/08/05 04:24:17;;;;;;;5.25;2.70;;;;;;;14.64;86.96;101116.59;10187735;28;20460;-68
2021/08/05 04:29:13;;;;;;;7.90;2.70;;;;;;;14.60;86.67;101115.69;10185161;28;20034;-69
2021/08/05 04:34:11;;;;;;;5.38;2.78;;;;;;;14.62;87.16;101124.38;10189849;28;20547;-68
2021/08/05 04:39:13;;;;;;;6.93;2.70;;;;;;;14.65;87.05;101129.22;10186231;28;20451;-68
2021/08/05 04:44:10;;;;;;;5.82;2.58;;;;;;;14.67;87.40;101113.19;10188248;28;20070;-68
2021/08/05 04:49:07;;;;;;;4.68;2.58;;;;;;;14.69;87.15;101108.13;10196786;28;20099;-68
2021/08/05 04:54:04;;;;;;;5.50;3.05;;;;;;;14.71;87.52;101111.34;10189041;28;20050;-69
2021/08/05 04:59:00;;;;;;;5.88;3.40;;;;;;;14.73;87.33;101109.06;10185536;28;20133;-69
2021/08/05 05:03:57;;;;;;;6.13;2.83;;;;;;;14.72;87.49;101112.97;10189061;28;20076;-68
2021/08/05 05:08:53;;;;;;;4.70;2.80;;;;;;;14.73;87.33;101106.31;10194132;28;20069;-68
2021/08/05 05:13:53;;;;;;;5.35;2.78;;;;;;;14.78;87.64;101116.31;10197238;28;20104;-68
2021/08/05 05:18:49;;;;;;;7.68;3.33;;;;;;;14.79;87.22;101113.25;10173271;28;20508;-68
2021/08/05 05:23:46;;;;;;;7.28;3.20;;;;;;;14.84;87.36;101107.53;10196373;28;20038;-67
2021/08/05 05:28:43;;;;;;;9.18;3.13;;;;;;;14.86;87.25;101105.25;10194938;28;20054;-67
2021/08/05 05:33:40;;;;;;;6.95;3.08;;;;;;;14.90;87.76;101092.44;10194718;28;20499;-67
2021/08/05 05:38:37;;;;;;;7.75;3.00;;;;;;;14.92;87.52;101101.16;10188371;28;20038;-67
2021/08/05 05:43:33;;;;;;;7.78;3.22;;;;;;;14.97;87.67;101107.56;10191837;28;20034;-67
2021/08/05 05:48:30;;;;;;;8.55;3.47;;;;;;;15.00;87.69;101106.91;10197312;28;20639;-67
2021/08/05 05:53:27;;;;;;;6.63;3.00;;;;;;;15.01;87.34;101109.31;10193849;28;20054;-67
2021/08/05 05:58:24;;;;;;;9.80;3.25;;;;;;;15.05;87.59;101107.50;10194868;28;20124;-67
2021/08/05 06:03:20;;;;;;;7.72;2.53;;;;;;;15.09;87.78;101099.38;10195002;28;20042;-67
2021/08/05 06:08:17;;;;;;;6.93;2.88;;;;;;;15.11;87.35;101102.59;10188186;28;20049;-67
2021/08/05 06:13:13;;;;;;;6.82;3.38;;;;;;;15.16;87.61;101105.13;10195430;28;20084;-67
2021/08/05 06:18:10;;;;;;;5.63;2.83;;;;;;;15.21;88.47;101107.66;10189527;28;20069;-67
2021/08/05 06:23:09;;;;;;;5.13;3.10;;;;;;;15.26;88.41;101098.38;10203505;28;20074;-67
2021/08/05 06:28:05;;;;;;;5.88;2.90;;;;;;;15.35;88.74;101108.16;10204402;28;20423;-70
2021/08/05 06:33:02;;;;;;;5.82;3.03;;;;;;;15.41;88.70;101110.69;10169978;28;20041;-69
2021/08/05 06:37:59;;;;;;;5.55;3.20;;;;;;;15.38;88.70;101105.88;10194091;28;20133;-69
2021/08/05 06:42:55;;;;;;;5.45;2.75;;;;;;;15.42;86.79;101102.09;10192049;28;20050;-69
2021/08/05 06:47:52;;;;;;;9.10;2.63;;;;;;;15.52;87.55;101115.44;10185714;28;20464;-68
2021/08/05 06:52:50;;;;;;;7.03;3.95;;;;;;;15.61;87.91;101122.81;10188240;28;20069;-68
2021/08/05 06:57:47;;;;;;;8.82;3.17;;;;;;;15.60;87.71;101108.22;10188258;28;20128;-67
2021/08/05 07:02:44;;;;;;;7.95;3.17;;;;;;;15.60;88.34;101113.72;10192446;28;20045;-68
2021/08/05 07:07:41;;;;;;;7.85;3.03;;;;;;;15.64;86.08;101108.31;10188207;28;20081;-71
2021/08/05 07:12:39;;;;;;;5.80;2.80;;;;;;;15.65;86.86;101105.25;10187779;28;20049;-68
2021/08/05 07:17:37;;;;;;;6.53;2.70;;;;;;;15.75;87.92;101102.06;10185946;28;20104;-69
2021/08/05 07:22:34;;;;;;;7.68;3.47;;;;;;;15.82;87.94;101103.44;10191563;28;20059;-68
2021/08/05 07:27:31;;;;;;;5.22;3.25;;;;;;;15.83;87.87;101102.28;10168350;28;20041;-67
2021/08/05 07:32:27;;;;;;;8.77;3.00;;;;;;;15.90;87.85;101105.28;10192838;28;20058;-67
2021/08/05 07:37:24;;;;;;;6.80;3.00;;;;;;;15.96;87.32;101109.41;10190678;28;20125;-67
2021/08/05 07:42:21;;;;;;;6.43;2.55;;;;;;;15.95;84.64;101107.81;10191091;28;20080;-66
2021/08/05 07:47:17;;;;;;;6.25;2.75;;;;;;;15.98;85.01;101104.38;10186062;28;20088;-66
2021/08/05 07:52:15;;;;;;;6.28;3.45;;;;;;;16.30;84.90;101101.81;10184849;28;20081;-65
2021/08/05 07:57:12;;;;;;;7.80;3.03;;;;;;;16.53;85.05;101108.44;10185132;28;20043;-65
2021/08/05 08:02:09;;;;;;;6.40;3.22;;;;;;;16.66;80.59;101102.88;10191302;28;20081;-65
2021/08/05 08:07:05;;;;;;;9.65;2.95;;;;;;;16.80;83.41;101097.78;10188727;28;20088;-67
2021/08/05 08:12:02;;;;;;;5.55;2.70;;;;;;;16.92;83.87;101094.16;10186700;28;20058;-67
2021/08/05 08:16:59;;;;;;;8.85;3.42;;;;;;;17.15;83.23;101091.66;10199927;28;20108;-67
2021/08/05 08:21:55;;;;;;;6.63;3.05;;;;;;;17.28;82.82;101089.63;10192174;28;20046;-66
2021/08/05 08:26:52;;;;;;;6.75;2.60;;;;;;;17.38;82.31;101086.34;10193933;28;20038;-67
2021/08/05 08:31:49;;;;;;;8.80;2.60;;;;;;;17.48;82.03;101088.59;10200999;28;20129;-67
2021/08/05 08:36:46;;;;;;;5.03;2.80;;;;;;;17.54;83.56;101086.34;10191360;28;20037;-67
2021/08/05 08:41:42;;;;;;;5.53;2.13;;;;;;;17.58;81.10;101081.72;10191837;28;20076;-67
2021/08/05 08:46:40;;;;;;;10.07;2.70;;;;;;;17.72;82.67;101082.06;10193966;28;20084;-67
2021/08/05 08:51:38;;;;;;;4.40;2.58;;;;;;;17.95;81.43;101078.69;10188953;28;20056;-67
2021/08/05 08:56:38;;;;;;;6.20;2.88;;;;;;;18.17;81.78;101075.28;10180326;28;20112;-66
2021/08/05 09:01:39;;;;;;;6.35;2.70;;;;;;;18.37;80.97;101067.00;10182090;28;20563;-66
2021/08/05 09:06:37;;;;;;;4.95;2.55;;;;;;;18.53;80.76;101070.50;10184605;28;20100;-66
2021/08/05 09:11:33;;;;;;;6.68;2.80;;;;;;;18.80;78.09;101065.13;10186658;28;20050;-65
2021/08/05 09:16:31;;;;;;;7.00;2.25;;;;;;;19.16;75.60;101063.03;10186493;28;20042;-66
2021/08/05 09:21:28;;;;;;;4.38;2.20;;;;;;;19.42;75.20;101054.00;10184156;28;20046;-66
2021/08/05 09:26:44;;;;;;;4.18;1.50;;;;;;;19.64;71.35;101046.84;10185943;28;20149;-66
2021/08/05 09:31:57;;;;;;;6.47;2.80;;;;;;;19.85;75.09;101055.53;10185648;28;20042;-66
2021/08/05 09:37:02;;;;;;;3.80;1.58;;;;;;;20.00;70.94;101044.63;10187810;28;20046;-66
2021/08/05 09:42:25;;;;;;;4.30;1.88;;;;;;;20.33;67.13;101044.72;10189145;28;20135;-66
2021/08/05 09:47:22;;;;;;;5.65;1.75;;;;;;;20.56;70.34;101038.25;10172121;28;20475;-66
2021/08/05 09:52:30;;;;;;;5.10;2.00;;;;;;;20.71;68.54;101033.69;10184390;28;20042;-66
2021/08/05 09:57:29;;;;;;;7.80;2.20;;;;;;;20.96;67.50;101028.41;10195217;28;20205;-66
2021/08/05 10:02:38;;;;;;;5.53;2.08;;;;;;;21.21;64.40;101017.50;10188271;28;20049;-67
2021/08/05 10:07:48;;;;;;;4.18;1.70;;;;;;;21.59;65.74;101010.72;10195652;28;20552;-66
2021/08/05 10:12:59;;;;;;;41.60;5.03;;;;;;;21.28;60.60;100997.31;10195676;28;20072;-66
2021/08/05 10:18:00;;;;;;;5.32;2.10;;;;;;;21.48;66.32;100998.69;10188289;28;20069;-66
2021/08/05 10:22:58;;;;;;;3.63;1.80;;;;;;;22.01;67.64;100992.69;10188629;28;20061;-66
2021/08/05 10:28:00;;;;;;;6.40;2.28;;;;;;;22.33;62.44;100980.94;10176140;28;20060;-66
2021/08/05 10:32:57;;;;;;;2.93;1.30;;;;;;;23.36;60.28;100978.75;10191630;28;20085;-66
2021/08/05 10:37:54;;;;;;;3.85;1.80;;;;;;;24.74;55.99;100976.75;10190962;28;20477;-66
2021/08/05 10:42:52;;;;;;;5.70;1.60;;;;;;;25.86;50.67;100967.41;10189819;28;20042;-67
2021/08/05 10:47:50;;;;;;;4.20;1.73;;;;;;;26.68;44.03;100957.19;10188655;28;20038;-68
2021/08/05 10:52:55;;;;;;;2.63;1.42;;;;;;;27.93;52.08;100959.91;10197035;28;20038;-67
2021/08/05 10:58:12;;;;;;;4.80;1.40;;;;;;;27.18;50.32;100956.44;10186807;28;20096;-67
2021/08/05 11:03:08;;;;;;;3.50;1.83;;;;;;;26.45;47.02;100950.28;10188572;28;20455;-67
2021/08/05 11:08:08;;;;;;;4.32;1.55;;;;;;;27.40;47.06;100934.41;10186997;28;20045;-66
2021/08/05 11:13:07;;;;;;;3.13;1.70;;;;;;;28.53;50.94;100929.75;10190796;28;20096;-66
2021/08/05 11:18:18;;;;;;;6.43;1.55;;;;;;;29.06;47.82;100924.84;10189683;28;20073;-66
2021/08/05 11:28:51;;;;;;;3.67;2.00;;;;;;;27.28;40.54;100910.56;10188783;28;20092;-66
2021/08/05 11:33:59;;;;;;;5.38;1.80;;;;;;;26.72;43.81;100919.47;10187022;28;20045;-66
2021/08/05 11:39:09;;;;;;;5.00;2.00;;;;;;;25.68;46.02;100915.19;10192785;28;20042;-68
2021/08/05 11:44:34;;;;;;;3.75;1.60;;;;;;;26.14;51.06;100902.66;10186788;28;20108;-68
2021/08/05 11:49:35;;;;;;;5.82;1.80;;;;;;;25.16;53.54;100890.13;10182756;28;20042;-67
2021/08/05 11:54:32;;;;;;;5.10;1.83;;;;;;;24.13;53.75;100887.63;10186128;28;20076;-68
2021/08/05 11:59:43;;;;;;;4.60;1.55;;;;;;;23.43;56.44;100886.66;10183968;28;20122;-67
2021/08/05 12:04:40;;;;;;;3.80;1.17;;;;;;;22.87;58.39;100891.88;10189414;28;20076;-68
2021/08/05 12:09:37;;;;;;;3.70;2.00;;;;;;;22.27;56.79;100890.59;10185474;28;20661;-69
2021/08/05 12:14:34;;;;;;;9.20;3.30;;;;;;;22.11;58.66;100876.97;10186437;28;20511;-69
2021/08/05 12:19:32;;;;;;;5.15;1.90;;;;;;;21.87;60.30;100877.72;10188738;28;20500;-69
2021/08/05 12:24:42;;;;;;;6.47;2.05;;;;;;;21.76;62.56;100880.44;10187682;28;20045;-69
2021/08/05 12:29:39;;;;;;;4.10;1.90;;;;;;;21.75;62.06;100867.72;10183904;28;20086;-68
2021/08/05 12:34:46;;;;;;;7.72;2.55;;;;;;;21.67;63.04;100871.63;10187694;28;20046;-69
2021/08/05 12:39:42;;;;;;;4.90;2.22;;;;;;;21.73;59.65;100864.53;10187349;28;20041;-69
2021/08/05 12:44:39;;;;;;;68.07;7.45;;;;;;;21.74;57.99;100863.31;10186847;28;20053;-67
2021/08/05 12:49:37;;;;;;;4.85;1.90;;;;;;;21.80;54.57;100867.34;10188517;28;20125;-67
2021/08/05 12:54:34;;;;;;;5.45;2.15;;;;;;;21.89;60.33;100859.41;10186164;28;20088;-67
2021/08/05 12:59:41;;;;;;;3.88;2.25;;;;;;;21.74;58.01;100861.31;10183218;28;20038;-68
2021/08/05 13:04:38;;;;;;;3.65;1.92;;;;;;;21.70;60.31;100865.28;10183890;28;20499;-66
2021/08/05 13:09:34;;;;;;;4.07;2.47;;;;;;;21.59;55.58;100863.25;10192134;28;20104;-67
2021/08/05 13:14:33;;;;;;;5.88;2.00;;;;;;;21.43;54.90;100854.44;10193633;28;20097;-66
2021/08/05 13:19:30;;;;;;;4.85;2.10;;;;;;;21.35;55.94;100861.09;10187055;28;20488;-67
2021/08/05 13:24:30;;;;;;;6.03;2.35;;;;;;;21.28;58.74;100866.63;10176895;28;20045;-67
2021/08/05 13:29:54;;;;;;;5.18;2.75;;;;;;;21.23;61.94;100865.00;10199788;28;20843;-67
2021/08/05 13:35:02;;;;;;;5.05;2.25;;;;;;;21.13;62.10;100860.97;10202086;28;20558;-67
2021/08/05 13:40:29;;;;;;;5.03;2.53;;;;;;;20.99;61.71;100866.44;10185891;28;20047;-67
2021/08/05 13:45:26;;;;;;;52.65;5.32;;;;;;;20.79;62.52;100850.00;10189555;28;20046;-67
2021/08/05 13:50:32;;;;;;;4.38;2.17;;;;;;;20.87;62.96;100858.41;10196207;28;20050;-67
2021/08/05 13:55:30;;;;;;;5.60;2.70;;;;;;;20.89;63.89;100861.59;10197699;28;20499;-67
2021/08/05 14:00:28;;;;;;;5.57;2.70;;;;;;;20.74;63.02;100850.34;10203890;28;20076;-66
2021/08/05 14:05:25;;;;;;;5.03;2.40;;;;;;;20.85;63.54;100855.19;10187669;28;20120;-67
2021/08/05 14:10:23;;;;;;;26.05;3.92;;;;;;;20.81;62.62;100844.84;10194233;28;20043;-67
2021/08/05 14:15:20;;;;;;;4.65;2.40;;;;;;;20.83;63.10;100838.91;10200797;28;20116;-67
2021/08/05 14:20:16;;;;;;;4.72;2.30;;;;;;;20.81;63.46;100842.06;10198857;28;20085;-67
2021/08/05 14:25:13;;;;;;;6.25;2.60;;;;;;;20.87;63.78;100836.16;10195767;28;20105;-67
2021/08/05 14:30:10;;;;;;;74.80;10.85;;;;;;;20.85;63.27;100821.84;10199874;28;20056;-68
2021/08/05 14:35:08;;;;;;;4.80;2.20;;;;;;;20.95;61.74;100804.44;10190903;28;20109;-68
2021/08/05 14:40:05;;;;;;;4.97;2.80;;;;;;;21.10;63.64;100805.34;10193080;28;20408;-69
2021/08/05 14:45:01;;;;;;;4.85;2.35;;;;;;;21.25;63.67;100795.91;10192589;28;20050;-69
2021/08/05 14:49:58;;;;;;;3.97;2.25;;;;;;;21.47;63.66;100802.41;10198464;28;20058;-68
2021/08/05 14:54:55;;;;;;;5.95;2.30;;;;;;;21.69;63.53;100796.91;10196777;28;20054;-66
2021/08/05 14:59:51;;;;;;;6.40;2.65;;;;;;;22.07;64.99;100795.44;10199292;28;20096;-69
2021/08/05 15:04:48;;;;;;;48.25;4.22;;;;;;;22.31;63.71;100798.69;10189964;28;20049;-66
2021/08/05 15:09:44;;;;;;;6.65;2.28;;;;;;;22.48;62.67;100786.75;10188521;28;20141;-68
2021/08/05 15:14:41;;;;;;;7.72;1.90;;;;;;;22.59;61.40;100786.75;10193972;28;20049;-68
2021/08/05 15:19:37;;;;;;;52.95;3.42;;;;;;;23.03;59.46;100771.59;10195047;28;20074;-67
2021/08/05 15:24:34;;;;;;;6.60;1.67;;;;;;;22.96;56.43;100766.03;10192853;28;20100;-67
2021/08/05 15:29:31;;;;;;;3.17;1.30;;;;;;;23.06;57.45;100765.22;10197236;28;20081;-67
2021/08/05 15:34:27;;;;;;;3.58;1.40;;;;;;;23.29;56.67;100759.97;10178814;28;20818;-67
2021/08/05 15:39:24;;;;;;;3.70;1.33;;;;;;;23.23;56.71;100767.16;10201038;28;20137;-68
2021/08/05 15:44:20;;;;;;;3.22;1.40;;;;;;;23.24;56.61;100754.81;10200566;28;20107;-66
2021/08/05 15:49:18;;;;;;;4.03;1.50;;;;;;;23.28;56.74;100749.22;10199798;28;20042;-68
2021/08/05 15:54:16;;;;;;;4.15;1.63;;;;;;;23.20;57.16;100748.44;10183074;28;20468;-67
2021/08/05 15:59:14;;;;;;;3.92;1.50;;;;;;;23.24;57.61;100749.22;10199120;28;20046;-67
2021/08/05 16:04:10;;;;;;;3.58;1.20;;;;;;;23.27;58.19;100739.25;10199097;28;20142;-67
2021/08/05 16:09:06;;;;;;;5.95;1.73;;;;;;;23.23;57.80;100730.91;10191856;28;20578;-68
2021/08/05 16:14:03;;;;;;;6.05;1.73;;;;;;;23.03;59.54;100738.16;10203161;28;20050;-68
2021/08/05 16:19:00;;;;;;;3.85;1.38;;;;;;;22.75;59.17;100734.19;10194800;28;20050;-67
2021/08/05 16:23:56;;;;;;;3.70;1.42;;;;;;;22.65;59.61;100718.28;10192282;28;20137;-68
2021/08/05 16:28:53;;;;;;;4.18;1.67;;;;;;;22.66;59.52;100728.25;10194524;28;20077;-66
2021/08/05 16:33:49;;;;;;;3.78;1.45;;;;;;;22.79;60.11;100717.44;10193021;28;20046;-68
2021/08/05 16:38:45;;;;;;;6.00;1.60;;;;;;;22.78;60.23;100718.66;10192880;28;20538;-67
2021/08/05 16:43:42;;;;;;;4.25;1.80;;;;;;;22.96;59.20;100722.19;10194147;28;20069;-67
2021/08/05 16:48:38;;;;;;;4.03;1.50;;;;;;;23.08;59.64;100712.63;10190919;28;20045;-68
2021/08/05 16:53:35;;;;;;;7.22;1.83;;;;;;;22.95;60.01;100714.22;10190377;28;20042;-67
2021/08/05 16:58:33;;;;;;;3.85;1.20;;;;;;;22.74;60.29;100709.50;10200742;28;20038;-68
2021/08/05 17:03:29;;;;;;;3.92;1.75;;;;;;;22.52;61.54;100708.75;10198460;28;20530;-67
2021/08/05 17:08:27;;;;;;;4.95;1.80;;;;;;;22.26;62.04;100707.97;10205799;28;20038;-70
2021/08/05 17:13:23;;;;;;;6.72;2.28;;;;;;;22.05;63.27;100698.41;10193550;28;20045;-68
2021/08/05 17:18:20;;;;;;;5.57;1.92;;;;;;;21.99;62.97;100694.41;10189524;28;20053;-67
2021/08/05 17:23:16;;;;;;;3.92;1.48;;;;;;;21.90;63.32;100696.00;10196911;28;20069;-67
2021/08/05 17:28:13;;;;;;;3.03;1.48;;;;;;;21.87;63.62;100697.59;10198680;28;20104;-68
2021/08/05 17:33:09;;;;;;;3.13;1.23;;;;;;;21.83;63.46;100699.56;10197905;28;20136;-67
2021/08/05 17:38:16;;;;;;;4.20;1.70;;;;;;;21.75;63.01;100695.19;10196939;28;20038;-68
2021/08/05 17:43:13;;;;;;;4.45;1.75;;;;;;;21.72;63.72;100701.53;10194783;28;20077;-67
2021/08/05 17:48:10;;;;;;;5.47;2.08;;;;;;;21.63;63.65;100710.28;10209041;28;20046;-67
2021/08/05 17:53:06;;;;;;;4.90;2.70;;;;;;;21.43;63.01;100734.84;10192311;28;20133;-67
2021/08/05 17:58:04;;;;;;;4.93;2.60;;;;;;;21.11;63.97;100740.22;10214394;28;20049;-65
2021/08/05 18:03:00;;;;;;;5.30;2.22;;;;;;;20.80;64.02;100729.31;10203757;28;20084;-70
2021/08/05 18:07:57;;;;;;;5.60;2.47;;;;;;;20.74;62.89;100725.31;10186147;28;20542;-69
2021/08/05 18:12:53;;;;;;;3.40;1.70;;;;;;;20.64;61.83;100723.28;10196526;28;20076;-69
2021/08/05 18:17:53;;;;;;;3.50;1.58;;;;;;;20.60;61.46;100722.44;10195095;28;20411;-69
2021/08/05 18:22:50;;;;;;;3.80;1.58;;;;;;;20.57;61.02;100714.91;10209425;28;20038;-69
2021/08/05 18:27:46;;;;;;;4.38;1.77;;;;;;;20.49;61.10;100727.09;10202106;28;20095;-70
2021/08/05 18:32:43;;;;;;;3.28;1.58;;;;;;;20.17;62.43;100727.66;10199776;28;20045;-69
2021/08/05 18:37:40;;;;;;;3.05;1.52;;;;;;;20.15;61.97;100752.22;10216839;28;20565;-68
2021/08/05 18:42:36;;;;;;;2.95;1.48;;;;;;;20.09;62.03;100745.41;10190898;28;20046;-70
2021/08/05 18:47:33;;;;;;;5.95;1.58;;;;;;;19.82;63.59;100745.53;10186799;28;20761;-67
2021/08/05 18:52:30;;;;;;;5.10;1.60;;;;;;;19.76;63.73;100749.81;10202063;28;20084;-69
2021/08/05 18:57:26;;;;;;;54.15;3.45;;;;;;;19.47;66.19;100749.47;10205944;28;20050;-70
2021/08/05 19:02:23;;;;;;;4.43;2.08;;;;;;;19.27;70.09;100748.03;10196468;28;20499;-68
2021/08/05 19:07:20;;;;;;;6.35;2.60;;;;;;;18.96;70.18;100738.94;10194949;28;20061;-67
2021/08/05 19:12:17;;;;;;;4.13;1.92;;;;;;;18.92;71.23;100732.53;10200440;28;20045;-69
2021/08/05 19:17:13;;;;;;;5.18;2.55;;;;;;;18.75;71.25;100739.34;10197157;28;20049;-68
2021/08/05 19:22:10;;;;;;;7.50;2.00;;;;;;;18.69;72.23;100736.13;10200451;28;20093;-69
2021/08/05 19:27:06;;;;;;;6.20;2.95;;;;;;;18.60;74.41;100741.13;10189582;28;20480;-69
2021/08/05 19:32:05;;;;;;;4.80;2.50;;;;;;;18.49;75.00;100742.91;10202695;28;20084;-68
2021/08/05 19:37:01;;;;;;;5.85;3.28;;;;;;;18.36;76.38;100728.50;10200675;28;20121;-70
2021/08/05 19:41:58;;;;;;;8.23;6.40;;;;;;;18.28;77.29;100710.94;10192698;28;20038;-68
2021/08/05 19:46:55;;;;;;;6.10;3.25;;;;;;;18.21;77.47;100699.75;10192257;28;20092;-69
2021/08/05 19:51:51;;;;;;;5.68;3.55;;;;;;;18.11;78.17;100686.56;10201486;28;20081;-68
2021/08/05 19:56:48;;;;;;;8.38;3.92;;;;;;;18.06;78.86;100684.91;10202271;28;20472;-69
2021/08/05 20:01:44;;;;;;;7.30;2.70;;;;;;;18.04;79.51;100678.16;10199940;28;20069;-69
2021/08/05 20:06:41;;;;;;;6.68;3.65;;;;;;;18.04;79.53;100683.69;10197844;28;20079;-68
2021/08/05 20:11:37;;;;;;;8.70;3.50;;;;;;;18.04;79.60;100678.16;10185891;28;20073;-70
2021/08/05 20:16:34;;;;;;;5.50;3.17;;;;;;;18.03;79.25;100671.00;10197128;28;20046;-66
2021/08/05 20:21:30;;;;;;;5.93;3.33;;;;;;;18.05;80.35;100674.19;10203339;28;20069;-70
2021/08/05 20:26:27;;;;;;;7.00;3.85;;;;;;;18.03;80.49;100671.00;10182377;28;20478;-69
2021/08/05 20:31:25;;;;;;;7.45;3.55;;;;;;;17.99;80.65;100676.50;10187613;28;20193;-68
2021/08/05 20:36:22;;;;;;;9.80;4.35;;;;;;;17.97;80.94;100678.81;10197552;28;20045;-69
2021/08/05 20:41:19;;;;;;;7.63;3.38;;;;;;;17.95;80.98;100681.16;10195439;28;20050;-67
2021/08/05 20:46:17;;;;;;;6.63;3.30;;;;;;;17.90;81.08;100688.97;10196725;28;20085;-70
2021/08/05 20:51:15;;;;;;;5.35;3.58;;;;;;;17.87;81.34;100680.25;10194032;28;20049;-69
2021/08/05 20:56:12;;;;;;;6.15;3.70;;;;;;;17.83;81.79;100690.44;10185789;28;20046;-70
2021/08/05 21:01:08;;;;;;;6.65;4.10;;;;;;;17.80;82.10;100691.16;10181834;28;20968;-69
2021/08/05 21:06:05;;;;;;;10.75;5.88;;;;;;;17.74;82.04;100692.59;10201566;28;20059;-69
2021/08/05 21:11:02;;;;;;;5.20;3.80;;;;;;;17.67;82.00;100693.28;10189412;28;20107;-69
2021/08/05 21:15:58;;;;;;;6.47;4.30;;;;;;;17.64;82.05;100676.63;10183329;28;20558;-68
2021/08/05 21:20:55;;;;;;;7.25;4.50;;;;;;;17.58;82.33;100683.63;10192320;28;20499;-69
2021/08/05 21:25:51;;;;;;;7.13;4.15;;;;;;;17.55;82.32;100681.59;10192926;28;20077;-69
2021/08/05 21:30:49;;;;;;;35.03;8.23;;;;;;;17.50;82.39;100681.88;10176824;28;20543;-69
2021/08/05 21:35:46;;;;;;;6.95;4.47;;;;;;;17.44;82.22;100676.66;10202391;28;20042;-69
2021/08/05 21:40:43;;;;;;;5.80;4.03;;;;;;;17.41;82.35;100674.63;10183487;28;20068;-70
2021/08/05 21:45:39;;;;;;;5.68;3.75;;;;;;;17.36;82.68;100666.63;10200485;28;20538;-67
2021/08/05 21:50:38;;;;;;;22.52;6.68;;;;;;;17.31;82.40;100666.91;10199309;28;20050;-68
2021/08/05 21:55:36;;;;;;;14.15;6.30;;;;;;;17.26;82.51;100656.16;10195124;28;20076;-69
2021/08/05 22:00:33;;;;;;;9.23;6.40;;;;;;;17.20;82.85;100647.38;10208491;28;20046;-69
2021/08/05 22:05:30;;;;;;;6.20;4.03;;;;;;;17.15;82.93;100644.09;10204589;28;20056;-69
2021/08/05 22:10:26;;;;;;;8.85;7.03;;;;;;;17.04;83.08;100639.16;10200932;28;20037;-69
2021/08/05 22:15:24;;;;;;;9.73;4.45;;;;;;;17.02;83.09;100640.69;10198239;28;20132;-69
2021/08/05 22:20:20;;;;;;;5.80;4.38;;;;;;;16.98;83.24;100645.34;10203102;28;20103;-68
2021/08/05 22:25:17;;;;;;;8.25;4.30;;;;;;;16.91;83.28;100640.44;10213224;28;20054;-66
2021/08/05 22:30:13;;;;;;;14.15;7.50;;;;;;;16.87;83.44;100634.06;10209585;28;20049;-68
2021/08/05 22:35:10;;;;;;;6.90;5.90;;;;;;;16.83;83.23;100633.19;10198353;28;20057;-70
2021/08/05 22:40:07;;;;;;;6.13;3.92;;;;;;;16.80;83.25;100629.22;10199279;28;20042;-68
2021/08/05 22:45:05;;;;;;;6.07;4.03;;;;;;;16.76;83.26;100616.44;10196785;28;20092;-69
2021/08/05 22:50:01;;;;;;;5.63;3.80;;;;;;;16.74;83.47;100616.00;10203386;28;20575;-69
2021/08/05 22:54:58;;;;;;;6.10;4.20;;;;;;;16.67;83.62;100613.91;10183904;28;20058;-69